createdAt,value
2022-10-10T00:01:15.783Z,13.84
2022-10-10T00:03:43.887Z,13.81
2022-10-10T00:06:13.065Z,13.81
2022-10-10T00:08:41.737Z,13.80
2022-10-10T00:11:09.648Z,13.71
2022-10-10T00:13:38.309Z,13.78
2022-10-10T00:16:06.808Z,13.78
2022-10-10T00:18:36.078Z,13.75
2022-10-10T00:21:03.969Z,13.75
2022-10-10T00:23:31.710Z,13.74
2022-10-10T00:25:59.860Z,13.74
2022-10-10T00:28:27.822Z,13.66
2022-10-10T00:30:56.071Z,13.71
2022-10-10T00:33:23.990Z,13.70
2022-10-10T00:35:53.123Z,13.70
2022-10-10T00:38:20.822Z,13.69
2022-10-10T00:40:50.147Z,13.67
2022-10-10T00:43:19.495Z,13.65
2022-10-10T00:45:48.463Z,13.66
2022-10-10T00:48:19.341Z,13.64
2022-10-10T00:50:51.967Z,13.64
2022-10-10T00:53:24.557Z,13.63
2022-10-10T00:55:53.280Z,13.62
2022-10-10T00:58:22.540Z,13.60
2022-10-10T01:00:50.565Z,13.59
2022-10-10T01:03:18.299Z,13.58
2022-10-10T01:05:47.186Z,13.57
2022-10-10T01:08:15.951Z,13.55
2022-10-10T01:10:55.551Z,13.53
2022-10-10T01:13:34.018Z,13.53
2022-10-10T01:16:08.256Z,13.50
2022-10-10T01:18:44.714Z,13.42
2022-10-10T01:21:21.720Z,13.47
2022-10-10T01:24:09.573Z,13.38
2022-10-10T01:27:12.628Z,13.45
2022-10-10T01:29:46.145Z,13.46
2022-10-10T01:32:18.298Z,13.44
2022-10-10T01:34:56.553Z,13.43
2022-10-10T01:37:35.792Z,13.42
2022-10-10T01:40:10.338Z,13.40
2022-10-10T01:42:43.346Z,13.39
2022-10-10T01:45:12.621Z,13.38
2022-10-10T01:47:40.360Z,13.38
2022-10-10T01:50:12.668Z,13.36
2022-10-10T01:52:53.314Z,13.26
2022-10-10T01:55:35.338Z,13.27
2022-10-10T01:58:19.744Z,13.34
2022-10-10T02:00:59.636Z,13.31
2022-10-10T02:03:31.170Z,13.29
2022-10-10T02:06:01.832Z,13.29
2022-10-10T02:08:34.706Z,13.27
2022-10-10T02:11:05.469Z,13.26
2022-10-10T02:13:39.557Z,13.25
2022-10-10T02:16:14.432Z,13.24
2022-10-10T02:18:46.026Z,13.23
2022-10-10T02:21:15.923Z,13.21
2022-10-10T02:23:44.779Z,13.20
2022-10-10T02:26:14.629Z,13.21
2022-10-10T02:28:49.387Z,13.22
2022-10-10T02:31:22.475Z,13.23
2022-10-10T02:33:56.504Z,13.22
2022-10-10T02:36:26.090Z,13.22
2022-10-10T02:38:55.145Z,13.21
2022-10-10T02:41:24.047Z,13.20
2022-10-10T02:43:53.249Z,13.20
2022-10-10T02:46:22.694Z,13.20
2022-10-10T02:48:50.464Z,13.19
2022-10-10T02:51:18.519Z,13.18
2022-10-10T02:53:47.619Z,13.18
2022-10-10T02:56:15.317Z,13.16
2022-10-10T02:58:43.147Z,13.16
2022-10-10T03:01:11.763Z,13.14
2022-10-10T03:03:40.852Z,13.14
2022-10-10T03:06:09.043Z,13.04
2022-10-10T03:08:38.448Z,13.12
2022-10-10T03:11:08.026Z,13.11
2022-10-10T03:13:35.715Z,13.11
2022-10-10T03:16:04.420Z,13.10
2022-10-10T03:18:32.148Z,13.09
2022-10-10T03:21:01.267Z,13.09
2022-10-10T03:23:28.988Z,13.07
2022-10-10T03:25:56.705Z,13.06
2022-10-10T03:28:24.755Z,13.03
2022-10-10T03:30:52.534Z,13.02
2022-10-10T03:33:20.329Z,13.01
2022-10-10T03:35:48.206Z,12.99
2022-10-10T03:38:17.459Z,12.97
2022-10-10T03:40:46.124Z,12.97
2022-10-10T03:43:15.599Z,12.96
2022-10-10T03:45:44.440Z,12.88
2022-10-10T03:48:12.767Z,12.93
2022-10-10T03:50:40.827Z,12.93
2022-10-10T03:53:08.784Z,12.93
2022-10-10T03:55:40.280Z,12.90
2022-10-10T03:58:08.038Z,12.91
2022-10-10T04:00:36.208Z,12.89
2022-10-10T04:03:06.479Z,12.89
2022-10-10T04:05:35.322Z,12.89
2022-10-10T04:08:03.466Z,12.87
2022-10-10T04:10:31.474Z,12.87
2022-10-10T04:13:00.596Z,12.84
2022-10-10T04:15:28.421Z,12.84
2022-10-10T04:17:56.119Z,12.84
2022-10-10T04:20:24.167Z,12.82
2022-10-10T04:22:52.206Z,12.82
2022-10-10T04:25:20.166Z,12.81
2022-10-10T04:27:47.885Z,12.80
2022-10-10T04:30:17.505Z,12.79
2022-10-10T04:32:45.202Z,12.78
2022-10-10T04:35:13.131Z,12.76
2022-10-10T04:37:40.825Z,12.75
2022-10-10T04:40:09.957Z,12.76
2022-10-10T04:42:37.733Z,12.75
2022-10-10T04:45:06.952Z,12.74
2022-10-10T04:47:36.111Z,12.72
2022-10-10T04:50:04.161Z,12.70
2022-10-10T04:52:32.451Z,12.71
2022-10-10T04:55:00.308Z,12.69
2022-10-10T04:57:28.005Z,12.70
2022-10-10T04:59:55.724Z,12.69
2022-10-10T05:02:23.447Z,12.67
2022-10-10T05:04:52.556Z,12.69
2022-10-10T05:07:20.328Z,12.68
2022-10-10T05:09:48.166Z,12.69
2022-10-10T05:12:16.244Z,12.69
2022-10-10T05:14:48.002Z,12.67
2022-10-10T05:17:16.241Z,12.59
2022-10-10T05:19:44.286Z,12.66
2022-10-10T05:22:13.408Z,12.66
2022-10-10T05:24:41.359Z,12.59
2022-10-10T05:27:09.116Z,12.66
2022-10-10T05:29:36.927Z,12.66
2022-10-10T05:32:09.313Z,12.65
2022-10-10T05:34:38.507Z,12.63
2022-10-10T05:37:06.232Z,12.61
2022-10-10T05:39:35.318Z,12.60
2022-10-10T05:42:03.492Z,12.59
2022-10-10T05:44:31.418Z,12.58
2022-10-10T05:46:59.188Z,12.58
2022-10-10T05:49:26.909Z,12.58
2022-10-10T05:51:54.620Z,12.57
2022-10-10T05:54:22.481Z,12.56
2022-10-10T05:56:51.599Z,12.55
2022-10-10T05:59:19.640Z,12.54
2022-10-10T06:01:47.666Z,12.46
2022-10-10T06:04:15.558Z,12.50
2022-10-10T06:06:43.659Z,12.42
2022-10-10T06:09:11.498Z,12.50
2022-10-10T06:11:39.237Z,12.48
2022-10-10T06:14:08.520Z,12.43
2022-10-10T06:16:36.972Z,12.42
2022-10-10T06:19:05.160Z,12.41
2022-10-10T06:21:33.037Z,12.42
2022-10-10T06:24:00.803Z,12.41
2022-10-10T06:26:28.623Z,12.41
2022-10-10T06:28:56.366Z,12.42
2022-10-10T06:31:25.529Z,12.42
2022-10-10T06:33:53.278Z,12.42
2022-10-10T06:36:21.252Z,12.39
2022-10-10T06:38:49.034Z,12.37
2022-10-10T06:41:16.842Z,12.37
2022-10-10T06:43:44.641Z,12.37
2022-10-10T06:46:13.404Z,12.38
2022-10-10T06:48:42.531Z,12.39
2022-10-10T06:51:14.103Z,12.37
2022-10-10T06:53:42.038Z,12.38
2022-10-10T06:56:15.841Z,12.38
2022-10-10T06:58:43.871Z,12.37
2022-10-10T07:01:12.859Z,12.38
2022-10-10T07:03:42.160Z,12.38
2022-10-10T07:06:11.664Z,12.34
2022-10-10T07:08:40.490Z,12.36
2022-10-10T07:11:09.091Z,12.39
2022-10-10T07:13:38.128Z,12.27
2022-10-10T07:16:06.680Z,12.37
2022-10-10T07:18:36.851Z,12.38
2022-10-10T07:21:06.873Z,12.38
2022-10-10T07:23:36.670Z,12.39
2022-10-10T07:26:06.872Z,12.42
2022-10-10T07:28:35.076Z,12.32
2022-10-10T07:31:05.760Z,12.33
2022-10-10T07:33:34.872Z,12.39
2022-10-10T07:36:02.628Z,12.27
2022-10-10T07:38:31.759Z,12.42
2022-10-10T07:40:59.778Z,12.43
2022-10-10T07:43:27.710Z,12.43
2022-10-10T07:45:55.879Z,12.43
2022-10-10T07:48:23.717Z,12.48
2022-10-10T07:50:51.490Z,12.62
2022-10-10T07:53:19.305Z,12.80
2022-10-10T07:55:48.558Z,12.92
2022-10-10T07:58:16.383Z,13.11
2022-10-10T08:00:44.204Z,13.25
2022-10-10T08:03:12.878Z,13.39
2022-10-10T08:05:41.264Z,13.58
2022-10-10T08:08:09.306Z,13.59
2022-10-10T08:10:37.103Z,13.53
2022-10-10T08:13:06.449Z,13.45
2022-10-10T08:15:34.308Z,13.33
2022-10-10T08:18:02.404Z,13.24
2022-10-10T08:20:30.230Z,13.17
2022-10-10T08:22:58.084Z,13.12
2022-10-10T08:25:26.325Z,13.11
2022-10-10T08:27:54.161Z,13.10
2022-10-10T08:30:23.283Z,13.07
2022-10-10T08:32:51.272Z,13.06
2022-10-10T08:35:19.244Z,13.07
2022-10-10T08:37:47.050Z,13.02
2022-10-10T08:40:17.253Z,13.02
2022-10-10T08:42:52.825Z,13.01
2022-10-10T08:45:25.806Z,12.96
2022-10-10T08:47:57.319Z,12.96
2022-10-10T08:50:28.930Z,12.94
2022-10-10T08:53:00.112Z,12.92
2022-10-10T08:55:33.557Z,12.93
2022-10-10T08:58:06.904Z,12.87
2022-10-10T09:00:42.991Z,12.94
2022-10-10T09:03:20.965Z,12.95
2022-10-10T09:06:05.096Z,12.96
2022-10-10T09:08:46.379Z,12.99
2022-10-10T09:11:26.764Z,12.98
2022-10-10T09:14:08.992Z,13.00
2022-10-10T09:16:45.502Z,13.00
2022-10-10T09:19:27.646Z,13.01
2022-10-10T09:22:00.882Z,13.06
2022-10-10T09:24:34.304Z,13.07
2022-10-10T09:27:05.294Z,13.09
2022-10-10T09:29:39.869Z,13.10
2022-10-10T09:32:15.466Z,13.12
2022-10-10T09:34:46.852Z,13.13
2022-10-10T09:37:29.446Z,13.16
2022-10-10T09:40:15.797Z,13.18
2022-10-10T09:42:45.529Z,13.19
2022-10-10T09:45:19.977Z,13.26
2022-10-10T09:47:53.352Z,13.28
2022-10-10T09:50:21.265Z,13.22
2022-10-10T09:52:50.286Z,13.33
2022-10-10T09:55:31.885Z,13.36
2022-10-10T09:58:11.801Z,13.39
2022-10-10T10:00:39.746Z,13.42
2022-10-10T10:03:13.941Z,13.44
2022-10-10T10:05:44.984Z,13.44
2022-10-10T10:08:27.533Z,13.44
2022-10-10T10:10:58.794Z,13.50
2022-10-10T10:13:30.615Z,13.50
2022-10-10T10:16:05.593Z,13.53
2022-10-10T10:18:40.946Z,13.56
2022-10-10T10:21:19.314Z,13.58
2022-10-10T10:23:53.754Z,13.59
2022-10-10T10:26:24.428Z,13.62
2022-10-10T10:28:53.712Z,13.63
2022-10-10T10:31:32.067Z,13.57
2022-10-10T10:34:11.979Z,13.67
2022-10-10T10:36:46.844Z,13.69
2022-10-10T10:39:29.882Z,13.71
2022-10-10T10:42:03.862Z,13.75
2022-10-10T10:44:41.500Z,13.76
2022-10-10T10:47:24.451Z,13.77
2022-10-10T10:50:05.595Z,13.80
2022-10-10T10:52:44.350Z,13.75
2022-10-10T10:55:39.345Z,13.85
2022-10-10T11:01:55.356Z,13.91
2022-10-10T11:05:24.257Z,13.90
2022-10-10T11:07:26.271Z,13.94
2022-10-10T11:10:01.635Z,13.98
2022-10-10T11:12:46.171Z,13.91
2022-10-10T11:15:19.852Z,14.00
2022-10-10T11:17:56.524Z,14.00
2022-10-10T11:20:27.595Z,14.03
2022-10-10T11:23:08.844Z,14.03
2022-10-10T11:25:44.367Z,14.04
2022-10-10T11:28:17.107Z,14.06
2022-10-10T11:30:50.233Z,14.07
2022-10-10T11:33:23.237Z,14.11
2022-10-10T11:35:56.235Z,14.11
2022-10-10T11:38:32.614Z,14.15
2022-10-10T11:41:04.896Z,14.16
2022-10-10T11:43:41.248Z,14.18
2022-10-10T11:46:25.714Z,14.21
2022-10-10T11:48:59.132Z,14.23
2022-10-10T11:51:47.137Z,14.26
2022-10-10T11:54:25.831Z,14.20
2022-10-10T11:56:59.589Z,14.30
2022-10-10T11:59:31.887Z,14.31
2022-10-10T12:02:02.217Z,14.26
2022-10-10T12:04:35.872Z,14.37
2022-10-10T12:07:08.317Z,14.44
2022-10-10T12:09:43.198Z,14.45
2022-10-10T12:12:15.938Z,14.49
2022-10-10T12:14:48.252Z,14.52
2022-10-10T12:17:22.452Z,14.53
2022-10-10T12:19:52.565Z,14.55
2022-10-10T12:22:25.824Z,14.60
2022-10-10T12:25:24.481Z,14.63
2022-10-10T12:28:07.035Z,14.60
2022-10-10T12:30:34.943Z,14.65
2022-10-10T12:33:02.751Z,14.70
2022-10-10T12:35:41.731Z,14.63
2022-10-10T12:38:15.516Z,14.66
2022-10-10T12:41:06.919Z,14.75
2022-10-10T12:43:49.261Z,14.78
2022-10-10T12:46:35.502Z,14.80
2022-10-10T12:49:19.059Z,14.77
2022-10-10T12:52:01.121Z,14.85
2022-10-10T12:54:33.745Z,14.88
2022-10-10T12:57:16.941Z,14.90
2022-10-10T12:59:44.756Z,14.93
2022-10-10T13:02:19.532Z,14.94
2022-10-10T13:04:49.342Z,14.97
2022-10-10T13:07:20.258Z,15.00
2022-10-10T13:09:50.020Z,15.01
2022-10-10T13:12:28.458Z,15.02
2022-10-10T13:14:57.554Z,15.05
2022-10-10T13:17:28.353Z,15.06
2022-10-10T13:19:58.339Z,15.05
2022-10-10T13:22:27.280Z,15.07
2022-10-10T13:24:55.932Z,15.09
2022-10-10T13:27:27.581Z,15.11
2022-10-10T13:29:56.455Z,15.12
2022-10-10T13:32:28.061Z,15.11
2022-10-10T13:34:58.843Z,15.10
2022-10-10T13:37:27.500Z,15.14
2022-10-10T13:39:55.775Z,15.13
2022-10-10T13:42:33.069Z,15.13
2022-10-10T13:45:03.144Z,15.14
2022-10-10T13:47:45.664Z,15.14
2022-10-10T13:50:21.548Z,15.16
2022-10-10T13:52:49.324Z,15.16
2022-10-10T13:55:25.297Z,15.17
2022-10-10T13:58:00.806Z,15.19
2022-10-10T14:00:32.780Z,15.19
2022-10-10T14:03:00.953Z,15.20
2022-10-10T14:05:31.774Z,15.20
2022-10-10T14:08:00.404Z,15.20
2022-10-10T14:10:33.684Z,15.20
2022-10-10T14:13:02.947Z,15.20
2022-10-10T14:15:34.750Z,15.20
2022-10-10T14:18:02.559Z,15.21
2022-10-10T14:20:30.348Z,15.21
2022-10-10T14:23:01.195Z,15.21
2022-10-10T14:25:28.995Z,15.16
2022-10-10T14:27:56.782Z,15.23
2022-10-10T14:30:26.701Z,15.24
2022-10-10T14:32:54.622Z,15.23
2022-10-10T14:35:22.639Z,15.24
2022-10-10T14:37:50.458Z,15.23
2022-10-10T14:40:20.433Z,15.23
2022-10-10T14:42:48.632Z,15.22
2022-10-10T14:45:18.419Z,15.21
2022-10-10T14:47:47.553Z,15.23
2022-10-10T14:50:17.594Z,15.22
2022-10-10T14:52:46.093Z,15.22
2022-10-10T14:55:14.830Z,15.22
2022-10-10T14:57:43.643Z,15.23
2022-10-10T15:00:16.362Z,15.23
2022-10-10T15:02:45.800Z,15.24
2022-10-10T15:05:15.793Z,15.23
2022-10-10T15:07:43.770Z,15.22
2022-10-10T15:13:02.058Z,15.24
2022-10-10T15:15:30.014Z,15.22
2022-10-10T15:17:58.688Z,15.20
2022-10-10T15:20:31.244Z,15.20
2022-10-10T15:23:00.109Z,15.18
2022-10-10T15:25:33.379Z,15.17
2022-10-10T15:28:02.512Z,15.19
2022-10-10T15:30:30.376Z,15.18
2022-10-10T15:32:58.234Z,15.18
2022-10-10T15:35:36.233Z,15.16
2022-10-10T15:38:15.924Z,15.10
2022-10-10T15:40:43.632Z,15.06
2022-10-10T15:43:11.520Z,15.01
2022-10-10T15:45:55.540Z,14.86
2022-10-10T15:48:24.257Z,14.91
2022-10-10T15:50:53.350Z,14.88
2022-10-10T15:53:21.256Z,14.86
2022-10-10T15:55:49.334Z,14.85
2022-10-10T15:58:17.439Z,14.85
2022-10-10T16:00:45.916Z,14.85
2022-10-10T16:03:13.802Z,14.86
2022-10-10T16:05:42.919Z,14.86
2022-10-10T16:08:12.514Z,14.83
2022-10-10T16:10:41.399Z,14.83
2022-10-10T16:13:09.191Z,14.83
2022-10-10T16:15:37.026Z,14.82
2022-10-10T16:18:04.830Z,14.81
2022-10-10T16:20:32.556Z,14.79
2022-10-10T16:23:00.276Z,14.81
2022-10-10T16:25:29.393Z,14.82
2022-10-10T16:27:57.198Z,14.84
2022-10-10T16:30:24.931Z,14.85
2022-10-10T16:32:52.679Z,14.85
2022-10-10T16:35:20.467Z,14.96
2022-10-10T16:37:48.245Z,15.11
2022-10-10T16:40:15.963Z,15.24
2022-10-10T16:42:45.302Z,15.39
2022-10-10T16:45:13.115Z,15.51
2022-10-10T16:47:40.849Z,15.56
2022-10-10T16:50:09.276Z,15.55
2022-10-10T16:52:38.320Z,15.50
2022-10-10T16:55:07.947Z,15.42
2022-10-10T16:57:36.393Z,15.30
2022-10-10T17:00:07.351Z,15.27
2022-10-10T17:02:35.521Z,15.24
2022-10-10T17:05:03.226Z,15.22
2022-10-10T17:07:31.041Z,15.21
2022-10-10T17:09:59.038Z,15.21
2022-10-10T17:12:26.845Z,15.19
2022-10-10T17:14:54.576Z,15.16
2022-10-10T17:17:23.819Z,15.13
2022-10-10T17:19:51.609Z,15.10
2022-10-10T17:22:19.917Z,15.08
2022-10-10T17:24:47.735Z,15.04
2022-10-10T17:27:15.508Z,15.06
2022-10-10T17:29:43.393Z,15.07
2022-10-10T17:32:11.134Z,15.07
2022-10-10T17:34:40.365Z,15.07
2022-10-10T17:37:08.317Z,15.05
2022-10-10T17:39:36.107Z,15.04
2022-10-10T17:42:05.198Z,15.01
2022-10-10T17:44:39.101Z,15.01
2022-10-10T17:47:10.062Z,14.97
2022-10-10T17:49:37.986Z,14.97
2022-10-10T17:52:07.185Z,14.94
2022-10-10T17:54:35.011Z,14.93
2022-10-10T17:57:02.768Z,15.05
2022-10-10T17:59:31.398Z,15.16
2022-10-10T18:01:59.108Z,15.32
2022-10-10T18:04:26.823Z,15.49
2022-10-10T18:06:55.027Z,15.61
2022-10-10T18:09:24.167Z,15.68
2022-10-10T18:11:52.043Z,15.60
2022-10-10T18:14:23.608Z,15.60
2022-10-10T18:16:51.512Z,15.49
2022-10-10T18:19:19.329Z,15.39
2022-10-10T18:21:47.671Z,15.29
2022-10-10T18:24:15.476Z,15.22
2022-10-10T18:26:44.892Z,15.17
2022-10-10T18:29:12.810Z,15.11
2022-10-10T18:31:40.519Z,14.97
2022-10-10T18:34:08.415Z,15.03
2022-10-10T18:36:37.749Z,14.99
2022-10-10T18:39:08.378Z,14.96
2022-10-10T18:41:36.543Z,14.91
2022-10-10T18:44:07.860Z,14.90
2022-10-10T18:46:36.340Z,14.86
2022-10-10T18:49:05.487Z,14.83
2022-10-10T18:51:33.651Z,14.81
2022-10-10T18:54:03.867Z,14.78
2022-10-10T18:56:33.700Z,14.70
2022-10-10T18:59:04.612Z,14.74
2022-10-10T19:01:36.492Z,14.72
2022-10-10T19:04:05.860Z,14.71
2022-10-10T19:06:33.700Z,14.68
2022-10-10T19:09:02.831Z,14.68
2022-10-10T19:11:32.376Z,14.67
2022-10-10T19:14:02.864Z,14.65
2022-10-10T19:16:31.601Z,14.62
2022-10-10T19:19:01.988Z,14.64
2022-10-10T19:21:31.968Z,14.61
2022-10-10T19:24:00.185Z,14.60
2022-10-10T19:26:33.399Z,14.59
2022-10-10T19:29:05.793Z,14.59
2022-10-10T19:31:34.505Z,14.59
2022-10-10T19:34:03.836Z,14.47
2022-10-10T19:36:31.630Z,14.55
2022-10-10T19:39:01.002Z,14.56
2022-10-10T19:41:29.760Z,14.53
2022-10-10T19:43:58.712Z,14.52
2022-10-10T19:46:28.020Z,14.51
2022-10-10T19:48:57.994Z,14.50
2022-10-10T19:51:29.220Z,14.50
2022-10-10T19:53:57.379Z,14.47
2022-10-10T19:56:26.269Z,14.47
2022-10-10T19:58:55.542Z,14.47
2022-10-10T20:01:28.986Z,14.44
2022-10-10T20:03:58.563Z,14.44
2022-10-10T20:06:28.643Z,14.41
2022-10-10T20:08:57.016Z,14.40
2022-10-10T20:11:26.491Z,14.39
2022-10-10T20:13:55.785Z,14.38
2022-10-10T20:16:26.577Z,14.36
2022-10-10T20:18:56.325Z,14.36
2022-10-10T20:21:29.094Z,14.31
2022-10-10T20:24:01.371Z,14.30
2022-10-10T20:26:29.304Z,14.30
2022-10-10T20:28:57.824Z,14.29
2022-10-10T20:31:27.889Z,14.28
2022-10-10T20:33:58.279Z,14.26
2022-10-10T20:36:27.038Z,14.17
2022-10-10T20:38:56.142Z,14.24
2022-10-10T20:41:27.334Z,14.22
2022-10-10T20:43:58.221Z,14.21
2022-10-10T20:46:27.565Z,14.20
2022-10-10T20:48:55.468Z,14.17
2022-10-10T20:51:23.812Z,14.09
2022-10-10T20:53:57.264Z,14.15
2022-10-10T20:56:27.095Z,14.15
2022-10-10T20:58:55.569Z,14.12
2022-10-10T21:01:25.315Z,14.00
2022-10-10T21:03:53.120Z,14.10
2022-10-10T21:06:23.011Z,14.08
2022-10-10T21:08:51.340Z,14.06
2022-10-10T21:11:19.449Z,14.06
2022-10-10T21:13:54.193Z,14.06
2022-10-10T21:16:22.440Z,14.04
2022-10-10T21:18:57.572Z,14.03
2022-10-10T21:21:26.951Z,14.01
2022-10-10T21:23:56.448Z,14.00
2022-10-10T21:26:26.280Z,13.99
2022-10-10T21:28:57.332Z,13.97
2022-10-10T21:31:27.907Z,13.97
2022-10-10T21:33:56.388Z,13.96
2022-10-10T21:36:25.848Z,13.95
2022-10-10T21:38:53.971Z,13.92
2022-10-10T21:41:22.595Z,13.92
2022-10-10T21:43:52.898Z,13.90
2022-10-10T21:46:24.361Z,13.89
2022-10-10T21:48:53.125Z,13.89
2022-10-10T21:51:21.483Z,13.86
2022-10-10T21:53:49.960Z,13.87
2022-10-10T21:56:17.724Z,13.83
2022-10-10T21:58:46.260Z,13.82
2022-10-10T22:01:16.133Z,13.82
2022-10-10T22:03:46.382Z,13.80
2022-10-10T22:06:16.184Z,13.80
2022-10-10T22:08:44.540Z,13.78
2022-10-10T22:11:14.695Z,13.76
2022-10-10T22:13:43.099Z,13.75
2022-10-10T22:16:11.703Z,13.66
2022-10-10T22:18:40.339Z,13.71
2022-10-10T22:21:12.352Z,13.71
2022-10-10T22:23:40.587Z,13.68
2022-10-10T22:26:09.960Z,13.66
2022-10-10T22:28:37.955Z,13.58
2022-10-10T22:31:06.572Z,13.63
2022-10-10T22:33:34.412Z,13.63
2022-10-10T22:36:02.590Z,13.54
2022-10-10T22:38:32.099Z,13.60
2022-10-10T22:40:59.901Z,13.50
2022-10-10T22:43:27.598Z,13.57
2022-10-10T22:45:55.710Z,13.56
2022-10-10T22:48:23.485Z,13.54
2022-10-10T22:50:59.887Z,13.53
2022-10-10T22:53:27.623Z,13.52
2022-10-10T22:55:57.043Z,13.50
2022-10-10T22:58:25.260Z,13.48
2022-10-10T23:00:53.524Z,13.47
2022-10-10T23:03:21.580Z,13.47
2022-10-10T23:05:49.527Z,13.44
2022-10-10T23:08:17.281Z,13.44
2022-10-10T23:10:45.649Z,13.43
2022-10-10T23:13:14.740Z,13.40
2022-10-10T23:15:42.482Z,13.40
2022-10-10T23:18:10.229Z,13.39
2022-10-10T23:20:38.106Z,13.37
2022-10-10T23:23:05.998Z,13.37
2022-10-10T23:25:33.740Z,13.36
2022-10-10T23:28:01.559Z,13.32
2022-10-10T23:30:30.649Z,13.31
2022-10-10T23:32:58.378Z,13.31
2022-10-10T23:35:26.369Z,13.31
2022-10-10T23:37:55.355Z,13.29
2022-10-10T23:40:23.228Z,13.29
2022-10-10T23:42:51.081Z,13.27
2022-10-10T23:45:19.297Z,13.26
2022-10-10T23:47:48.444Z,13.24
2022-10-10T23:50:16.362Z,13.22
2022-10-10T23:52:44.202Z,13.22
2022-10-10T23:55:11.946Z,13.22
2022-10-10T23:57:39.691Z,13.21
